sensor_id;sensor_type;location;lat;lon;timestamp;temperature;humidity
4693;DHT22;11710;48.024;16.296;2023-06-14T03:19:21;14.40;99.90
4693;DHT22;11710;48.024;16.296;2023-06-14T03:21:48;14.40;99.90
4693;DHT22;11710;48.024;16.296;2023-06-14T03:24:15;14.50;99.90
4693;DHT22;11710;48.024;16.296;2023-06-14T03:26:43;14.50;99.90
4693;DHT22;11710;48.024;16.296;2023-06-14T03:29:10;14.50;99.90
4693;DHT22;11710;48.024;16.296;2023-06-14T03:31:57;14.60;99.90
4693;DHT22;11710;48.024;16.296;2023-06-14T03:34:26;14.60;99.90
4693;DHT22;11710;48.024;16.296;2023-06-14T03:36:53;14.70;99.90
4693;DHT22;11710;48.024;16.296;2023-06-14T03:39:21;14.90;99.90
4693;DHT22;11710;48.024;16.296;2023-06-14T03:41:48;15.20;99.90
4693;DHT22;11710;48.024;16.296;2023-06-14T03:44:17;16.10;99.90
4693;DHT22;11710;48.024;16.296;2023-06-14T03:46:44;17.00;99.90
4693;DHT22;11710;48.024;16.296;2023-06-14T03:49:12;18.10;99.90
4693;DHT22;11710;48.024;16.296;2023-06-14T03:51:41;19.10;98.90
4693;DHT22;11710;48.024;16.296;2023-06-14T03:54:08;20.10;97.90
4693;DHT22;11710;48.024;16.296;2023-06-14T03:56:35;20.80;96.60
4693;DHT22;11710;48.024;16.296;2023-06-14T03:59:02;21.80;95.10
4693;DHT22;11710;48.024;16.296;2023-06-14T04:01:29;22.70;93.60
4693;DHT22;11710;48.024;16.296;2023-06-14T04:03:57;23.20;92.10
4693;DHT22;11710;48.024;16.296;2023-06-14T04:06:24;23.10;91.50
4693;DHT22;11710;48.024;16.296;2023-06-14T04:08:59;23.00;91.30
4693;DHT22;11710;48.024;16.296;2023-06-14T04:11:30;22.50;91.00
4693;DHT22;11710;48.024;16.296;2023-06-14T04:13:58;22.20;91.60
4693;DHT22;11710;48.024;16.296;2023-06-14T04:16:26;21.90;91.30
4693;DHT22;11710;48.024;16.296;2023-06-14T04:18:54;21.30;91.50
4693;DHT22;11710;48.024;16.296;2023-06-14T04:21:24;21.00;92.50
4693;DHT22;11710;48.024;16.296;2023-06-14T04:23:52;22.00;93.20
4693;DHT22;11710;48.024;16.296;2023-06-14T04:26:22;23.40;92.60
4693;DHT22;11710;48.024;16.296;2023-06-14T04:28:55;24.50;91.30
4693;DHT22;11710;48.024;16.296;2023-06-14T04:31:28;24.70;88.90
4693;DHT22;11710;48.024;16.296;2023-06-14T04:33:55;24.30;89.00
4693;DHT22;11710;48.024;16.296;2023-06-14T04:36:22;23.60;89.30
4693;DHT22;11710;48.024;16.296;2023-06-14T04:38:49;22.90;90.00
4693;DHT22;11710;48.024;16.296;2023-06-14T04:41:21;22.40;90.10
4693;DHT22;11710;48.024;16.296;2023-06-14T04:43:56;21.90;91.00
4693;DHT22;11710;48.024;16.296;2023-06-14T04:46:24;21.70;91.70
4693;DHT22;11710;48.024;16.296;2023-06-14T04:48:54;23.60;92.00
4693;DHT22;11710;48.024;16.296;2023-06-14T04:51:22;25.80;89.50
4693;DHT22;11710;48.024;16.296;2023-06-14T04:53:55;27.40;86.30
4693;DHT22;11710;48.024;16.296;2023-06-14T04:56:25;28.90;83.00
4693;DHT22;11710;48.024;16.296;2023-06-14T04:58:53;29.70;80.00
4693;DHT22;11710;48.024;16.296;2023-06-14T05:01:22;30.20;76.80
4693;DHT22;11710;48.024;16.296;2023-06-14T05:03:50;30.30;76.00
4693;DHT22;11710;48.024;16.296;2023-06-14T05:06:17;30.00;75.20
4693;DHT22;11710;48.024;16.296;2023-06-14T05:08:45;28.90;74.70
4693;DHT22;11710;48.024;16.296;2023-06-14T05:11:12;27.20;76.70
4693;DHT22;11710;48.024;16.296;2023-06-14T05:13:41;25.80;79.10
4693;DHT22;11710;48.024;16.296;2023-06-14T05:16:09;24.50;82.10
4693;DHT22;11710;48.024;16.296;2023-06-14T05:18:37;23.70;84.20
4693;DHT22;11710;48.024;16.296;2023-06-14T05:21:06;23.10;86.70
4693;DHT22;11710;48.024;16.296;2023-06-14T05:23:33;22.60;87.70
4693;DHT22;11710;48.024;16.296;2023-06-14T05:26:00;22.20;89.30
4693;DHT22;11710;48.024;16.296;2023-06-14T05:28:29;22.00;90.10
4693;DHT22;11710;48.024;16.296;2023-06-14T05:30:59;22.10;90.90
4693;DHT22;11710;48.024;16.296;2023-06-14T05:33:26;22.00;90.30
4693;DHT22;11710;48.024;16.296;2023-06-14T05:35:53;21.80;90.40
4693;DHT22;11710;48.024;16.296;2023-06-14T05:38:21;21.70;91.40
4693;DHT22;11710;48.024;16.296;2023-06-14T05:40:48;22.00;91.20
4693;DHT22;11710;48.024;16.296;2023-06-14T05:43:15;21.90;90.80
4693;DHT22;11710;48.024;16.296;2023-06-14T05:45:42;22.00;91.40
4693;DHT22;11710;48.024;16.296;2023-06-14T05:48:11;22.50;91.50
4693;DHT22;11710;48.024;16.296;2023-06-14T05:50:38;22.80;91.10
4693;DHT22;11710;48.024;16.296;2023-06-14T05:53:05;23.10;90.70
4693;DHT22;11710;48.024;16.296;2023-06-14T05:55:32;23.40;91.10
4693;DHT22;11710;48.024;16.296;2023-06-14T05:58:00;23.50;90.30
4693;DHT22;11710;48.024;16.296;2023-06-14T06:00:27;23.20;90.00
4693;DHT22;11710;48.024;16.296;2023-06-14T06:02:54;23.00;89.70
4693;DHT22;11710;48.024;16.296;2023-06-14T06:05:25;23.10;90.20
4693;DHT22;11710;48.024;16.296;2023-06-14T06:07:52;22.60;89.00
4693;DHT22;11710;48.024;16.296;2023-06-14T06:10:19;22.30;89.20
4693;DHT22;11710;48.024;16.296;2023-06-14T06:12:46;21.90;89.40
4693;DHT22;11710;48.024;16.296;2023-06-14T06:15:15;21.70;90.40
4693;DHT22;11710;48.024;16.296;2023-06-14T06:17:42;21.70;91.00
4693;DHT22;11710;48.024;16.296;2023-06-14T06:20:10;21.70;90.60
4693;DHT22;11710;48.024;16.296;2023-06-14T06:22:39;21.60;91.00
4693;DHT22;11710;48.024;16.296;2023-06-14T06:25:08;21.60;90.90
4693;DHT22;11710;48.024;16.296;2023-06-14T06:27:35;21.40;91.10
4693;DHT22;11710;48.024;16.296;2023-06-14T06:30:05;21.50;90.90
4693;DHT22;11710;48.024;16.296;2023-06-14T06:32:32;21.70;90.70
4693;DHT22;11710;48.024;16.296;2023-06-14T06:34:59;21.80;90.70
4693;DHT22;11710;48.024;16.296;2023-06-14T06:37:27;22.00;90.90
4693;DHT22;11710;48.024;16.296;2023-06-14T06:39:56;22.30;90.70
4693;DHT22;11710;48.024;16.296;2023-06-14T06:42:23;22.30;90.50
4693;DHT22;11710;48.024;16.296;2023-06-14T06:44:50;21.80;90.80
4693;DHT22;11710;48.024;16.296;2023-06-14T06:47:17;21.80;91.20
4693;DHT22;11710;48.024;16.296;2023-06-14T06:49:44;22.10;90.60
4693;DHT22;11710;48.024;16.296;2023-06-14T06:52:11;22.10;90.20
4693;DHT22;11710;48.024;16.296;2023-06-14T06:54:39;22.10;89.70
4693;DHT22;11710;48.024;16.296;2023-06-14T06:57:08;22.00;89.30
4693;DHT22;11710;48.024;16.296;2023-06-14T06:59:37;22.30;89.60
4693;DHT22;11710;48.024;16.296;2023-06-14T07:02:05;22.60;89.40
4693;DHT22;11710;48.024;16.296;2023-06-14T07:04:33;22.50;87.70
4693;DHT22;11710;48.024;16.296;2023-06-14T07:07:00;22.10;88.40
4693;DHT22;11710;48.024;16.296;2023-06-14T07:09:27;21.70;89.70
4693;DHT22;11710;48.024;16.296;2023-06-14T07:11:54;21.80;90.40
4693;DHT22;11710;48.024;16.296;2023-06-14T07:14:23;21.80;90.00
4693;DHT22;11710;48.024;16.296;2023-06-14T07:16:50;21.70;89.50
4693;DHT22;11710;48.024;16.296;2023-06-14T07:19:17;21.80;89.80
4693;DHT22;11710;48.024;16.296;2023-06-14T07:21:45;22.00;90.00
4693;DHT22;11710;48.024;16.296;2023-06-14T07:24:12;22.10;89.80
4693;DHT22;11710;48.024;16.296;2023-06-14T07:26:39;22.00;88.80
4693;DHT22;11710;48.024;16.296;2023-06-14T07:29:06;22.10;88.40
4693;DHT22;11710;48.024;16.296;2023-06-14T07:31:35;22.20;88.50
4693;DHT22;11710;48.024;16.296;2023-06-14T07:34:02;22.30;89.60
4693;DHT22;11710;48.024;16.296;2023-06-14T07:36:29;22.70;90.00
4693;DHT22;11710;48.024;16.296;2023-06-14T07:38:56;22.90;89.00
4693;DHT22;11710;48.024;16.296;2023-06-14T07:41:24;23.00;89.10
4693;DHT22;11710;48.024;16.296;2023-06-14T07:43:51;23.20;89.30
4693;DHT22;11710;48.024;16.296;2023-06-14T07:46:18;23.40;88.10
4693;DHT22;11710;48.024;16.296;2023-06-14T07:48:47;23.90;86.90
4693;DHT22;11710;48.024;16.296;2023-06-14T07:51:14;24.20;86.70
4693;DHT22;11710;48.024;16.296;2023-06-14T07:53:41;24.30;86.10
4693;DHT22;11710;48.024;16.296;2023-06-14T07:56:09;23.90;85.00
4693;DHT22;11710;48.024;16.296;2023-06-14T07:58:36;23.40;85.80
4693;DHT22;11710;48.024;16.296;2023-06-14T08:01:04;23.10;86.80
4693;DHT22;11710;48.024;16.296;2023-06-14T08:03:33;22.90;87.10
4693;DHT22;11710;48.024;16.296;2023-06-14T08:06:03;22.70;87.60
4693;DHT22;11710;48.024;16.296;2023-06-14T08:08:31;22.80;88.00
4693;DHT22;11710;48.024;16.296;2023-06-14T08:10:59;22.80;88.10
4693;DHT22;11710;48.024;16.296;2023-06-14T08:13:26;23.10;87.80
4693;DHT22;11710;48.024;16.296;2023-06-14T08:15:54;23.50;88.40
4693;DHT22;11710;48.024;16.296;2023-06-14T08:18:23;23.60;86.90
4693;DHT22;11710;48.024;16.296;2023-06-14T08:20:50;24.00;87.00
4693;DHT22;11710;48.024;16.296;2023-06-14T08:23:19;23.90;85.60
4693;DHT22;11710;48.024;16.296;2023-06-14T08:25:47;23.90;86.90
4693;DHT22;11710;48.024;16.296;2023-06-14T08:28:15;24.20;85.90
4693;DHT22;11710;48.024;16.296;2023-06-14T08:30:42;24.50;85.90
4693;DHT22;11710;48.024;16.296;2023-06-14T08:33:09;24.80;86.80
4693;DHT22;11710;48.024;16.296;2023-06-14T08:35:36;25.20;86.30
4693;DHT22;11710;48.024;16.296;2023-06-14T08:38:05;25.50;83.20
4693;DHT22;11710;48.024;16.296;2023-06-14T08:40:37;25.80;83.30
4693;DHT22;11710;48.024;16.296;2023-06-14T08:43:05;25.60;83.80
4693;DHT22;11710;48.024;16.296;2023-06-14T08:45:33;25.30;84.20
4693;DHT22;11710;48.024;16.296;2023-06-14T08:48:00;25.00;84.30
4693;DHT22;11710;48.024;16.296;2023-06-14T08:50:28;24.70;85.00
4693;DHT22;11710;48.024;16.296;2023-06-14T08:52:58;24.80;85.30
4693;DHT22;11710;48.024;16.296;2023-06-14T08:55:28;24.60;84.00
4693;DHT22;11710;48.024;16.296;2023-06-14T08:57:58;24.20;83.70
4693;DHT22;11710;48.024;16.296;2023-06-14T09:00:26;24.30;85.30
4693;DHT22;11710;48.024;16.296;2023-06-14T09:02:54;24.90;87.00
4693;DHT22;11710;48.024;16.296;2023-06-14T09:05:24;24.80;84.20
4693;DHT22;11710;48.024;16.296;2023-06-14T09:07:52;24.40;84.60
4693;DHT22;11710;48.024;16.296;2023-06-14T09:10:22;24.40;85.50
4693;DHT22;11710;48.024;16.296;2023-06-14T09:12:51;24.60;85.80
4693;DHT22;11710;48.024;16.296;2023-06-14T09:15:20;24.50;85.70
4693;DHT22;11710;48.024;16.296;2023-06-14T09:17:48;24.50;86.10
4693;DHT22;11710;48.024;16.296;2023-06-14T09:20:15;24.50;85.90
4693;DHT22;11710;48.024;16.296;2023-06-14T09:22:44;24.50;85.60
4693;DHT22;11710;48.024;16.296;2023-06-14T09:25:12;24.50;86.60
4693;DHT22;11710;48.024;16.296;2023-06-14T09:27:41;24.30;86.00
4693;DHT22;11710;48.024;16.296;2023-06-14T09:30:10;24.20;85.70
4693;DHT22;11710;48.024;16.296;2023-06-14T09:32:40;24.30;86.20
4693;DHT22;11710;48.024;16.296;2023-06-14T09:35:08;24.20;85.20
4693;DHT22;11710;48.024;16.296;2023-06-14T09:37:36;23.90;86.30
4693;DHT22;11710;48.024;16.296;2023-06-14T09:40:06;24.00;87.60
4693;DHT22;11710;48.024;16.296;2023-06-14T09:42:34;24.00;86.60
4693;DHT22;11710;48.024;16.296;2023-06-14T09:45:03;24.00;85.70
4693;DHT22;11710;48.024;16.296;2023-06-14T09:47:31;24.20;85.80
4693;DHT22;11710;48.024;16.296;2023-06-14T09:50:00;24.60;87.20
4693;DHT22;11710;48.024;16.296;2023-06-14T09:52:27;24.60;87.40
4693;DHT22;11710;48.024;16.296;2023-06-14T09:54:56;24.70;86.50
4693;DHT22;11710;48.024;16.296;2023-06-14T09:57:26;25.10;86.80
4693;DHT22;11710;48.024;16.296;2023-06-14T09:59:57;24.80;86.10
4693;DHT22;11710;48.024;16.296;2023-06-14T10:02:27;24.80;85.00
4693;DHT22;11710;48.024;16.296;2023-06-14T10:05:04;24.80;85.10
4693;DHT22;11710;48.024;16.296;2023-06-14T10:07:37;24.70;86.40
4693;DHT22;11710;48.024;16.296;2023-06-14T10:10:07;24.90;85.60
4693;DHT22;11710;48.024;16.296;2023-06-14T10:12:34;24.90;84.90
4693;DHT22;11710;48.024;16.296;2023-06-14T10:15:02;24.40;85.60
4693;DHT22;11710;48.024;16.296;2023-06-14T10:17:38;24.10;85.90
4693;DHT22;11710;48.024;16.296;2023-06-14T10:20:18;24.10;84.60
4693;DHT22;11710;48.024;16.296;2023-06-14T10:22:50;24.30;84.40
4693;DHT22;11710;48.024;16.296;2023-06-14T10:25:30;24.30;84.90
4693;DHT22;11710;48.024;16.296;2023-06-14T10:28:18;24.10;85.30
4693;DHT22;11710;48.024;16.296;2023-06-14T10:31:07;24.20;85.40
4693;DHT22;11710;48.024;16.296;2023-06-14T10:33:36;24.30;85.30
4693;DHT22;11710;48.024;16.296;2023-06-14T10:36:27;24.50;85.70
4693;DHT22;11710;48.024;16.296;2023-06-14T10:39:01;24.70;85.30
4693;DHT22;11710;48.024;16.296;2023-06-14T10:41:34;24.60;84.50
4693;DHT22;11710;48.024;16.296;2023-06-14T10:44:32;24.70;84.70
4693;DHT22;11710;48.024;16.296;2023-06-14T10:47:01;24.70;84.20
4693;DHT22;11710;48.024;16.296;2023-06-14T10:49:40;24.80;84.80
4693;DHT22;11710;48.024;16.296;2023-06-14T10:52:13;24.70;84.40
4693;DHT22;11710;48.024;16.296;2023-06-14T10:55:14;24.80;84.70
4693;DHT22;11710;48.024;16.296;2023-06-14T10:57:44;24.50;83.10
4693;DHT22;11710;48.024;16.296;2023-06-14T11:00:15;24.00;81.50
4693;DHT22;11710;48.024;16.296;2023-06-14T11:05:55;24.20;83.60
4693;DHT22;11710;48.024;16.296;2023-06-14T11:08:45;24.50;81.80
4693;DHT22;11710;48.024;16.296;2023-06-14T11:11:16;24.60;83.10
4693;DHT22;11710;48.024;16.296;2023-06-14T11:13:45;24.90;83.60
4693;DHT22;11710;48.024;16.296;2023-06-14T11:16:13;24.90;83.00
4693;DHT22;11710;48.024;16.296;2023-06-14T11:18:41;24.90;83.00
4693;DHT22;11710;48.024;16.296;2023-06-14T11:21:09;24.80;82.20
4693;DHT22;11710;48.024;16.296;2023-06-14T11:23:36;24.50;80.40
4693;DHT22;11710;48.024;16.296;2023-06-14T11:26:05;23.70;79.40
4693;DHT22;11710;48.024;16.296;2023-06-14T11:28:38;23.30;80.50
4693;DHT22;11710;48.024;16.296;2023-06-14T11:31:06;23.30;80.60
4693;DHT22;11710;48.024;16.296;2023-06-14T11:33:34;23.30;81.50
4693;DHT22;11710;48.024;16.296;2023-06-14T11:36:03;22.90;82.20
4693;DHT22;11710;48.024;16.296;2023-06-14T11:38:34;22.90;84.50
4693;DHT22;11710;48.024;16.296;2023-06-14T11:41:01;22.60;84.80
4693;DHT22;11710;48.024;16.296;2023-06-14T11:43:31;22.40;84.20
4693;DHT22;11710;48.024;16.296;2023-06-14T11:46:00;22.20;84.60
4693;DHT22;11710;48.024;16.296;2023-06-14T11:48:36;22.10;84.50
4693;DHT22;11710;48.024;16.296;2023-06-14T11:51:05;22.00;86.20
4693;DHT22;11710;48.024;16.296;2023-06-14T11:53:32;22.10;86.20
4693;DHT22;11710;48.024;16.296;2023-06-14T11:56:00;22.00;86.70
4693;DHT22;11710;48.024;16.296;2023-06-14T11:58:31;22.10;86.90
4693;DHT22;11710;48.024;16.296;2023-06-14T12:00:58;22.30;85.90
4693;DHT22;11710;48.024;16.296;2023-06-14T12:03:26;22.30;86.20
4693;DHT22;11710;48.024;16.296;2023-06-14T12:06:05;22.30;85.40
4693;DHT22;11710;48.024;16.296;2023-06-14T12:08:35;22.30;84.70
4693;DHT22;11710;48.024;16.296;2023-06-14T12:11:06;22.50;85.10
4693;DHT22;11710;48.024;16.296;2023-06-14T12:13:38;22.50;84.00
4693;DHT22;11710;48.024;16.296;2023-06-14T12:16:07;22.90;85.80
4693;DHT22;11710;48.024;16.296;2023-06-14T12:18:36;23.00;82.90
4693;DHT22;11710;48.024;16.296;2023-06-14T12:21:04;23.00;82.90
4693;DHT22;11710;48.024;16.296;2023-06-14T12:23:45;23.30;82.80
4693;DHT22;11710;48.024;16.296;2023-06-14T12:26:14;23.60;82.90
4693;DHT22;11710;48.024;16.296;2023-06-14T12:28:45;23.70;83.20
4693;DHT22;11710;48.024;16.296;2023-06-14T12:31:13;23.40;82.40
4693;DHT22;11710;48.024;16.296;2023-06-14T12:33:41;23.50;82.00
4693;DHT22;11710;48.024;16.296;2023-06-14T12:36:09;23.70;80.80
4693;DHT22;11710;48.024;16.296;2023-06-14T12:38:36;24.00;80.60
4693;DHT22;11710;48.024;16.296;2023-06-14T12:41:04;24.10;80.20
4693;DHT22;11710;48.024;16.296;2023-06-14T12:43:31;24.20;80.50
4693;DHT22;11710;48.024;16.296;2023-06-14T12:46:00;24.10;79.90
4693;DHT22;11710;48.024;16.296;2023-06-14T12:48:27;24.10;81.20
4693;DHT22;11710;48.024;16.296;2023-06-14T12:50:56;24.00;80.60
4693;DHT22;11710;48.024;16.296;2023-06-14T12:53:24;23.60;81.20
4693;DHT22;11710;48.024;16.296;2023-06-14T12:55:51;23.80;81.10
4693;DHT22;11710;48.024;16.296;2023-06-14T12:58:18;24.00;81.30
4693;DHT22;11710;48.024;16.296;2023-06-14T13:00:46;23.80;81.70
4693;DHT22;11710;48.024;16.296;2023-06-14T13:03:15;23.70;83.20
4693;DHT22;11710;48.024;16.296;2023-06-14T13:05:42;23.20;81.10
4693;DHT22;11710;48.024;16.296;2023-06-14T13:08:09;23.00;81.00
4693;DHT22;11710;48.024;16.296;2023-06-14T13:10:37;23.00;81.80
4693;DHT22;11710;48.024;16.296;2023-06-14T13:13:04;23.00;81.80
4693;DHT22;11710;48.024;16.296;2023-06-14T13:15:33;23.20;83.10
4693;DHT22;11710;48.024;16.296;2023-06-14T13:18:00;23.10;82.60
4693;DHT22;11710;48.024;16.296;2023-06-14T13:20:30;23.20;83.00
4693;DHT22;11710;48.024;16.296;2023-06-14T13:22:57;23.30;82.60
4693;DHT22;11710;48.024;16.296;2023-06-14T13:25:25;23.60;82.10
4693;DHT22;11710;48.024;16.296;2023-06-14T13:27:52;23.90;82.40
4693;DHT22;11710;48.024;16.296;2023-06-14T13:30:19;24.20;83.30
4693;DHT22;11710;48.024;16.296;2023-06-14T13:32:47;24.50;82.40
4693;DHT22;11710;48.024;16.296;2023-06-14T13:35:14;24.60;80.50
4693;DHT22;11710;48.024;16.296;2023-06-14T13:37:43;24.10;80.90
4693;DHT22;11710;48.024;16.296;2023-06-14T13:40:11;23.60;81.50
4693;DHT22;11710;48.024;16.296;2023-06-14T13:42:39;23.30;81.20
4693;DHT22;11710;48.024;16.296;2023-06-14T13:45:07;23.50;81.60
4693;DHT22;11710;48.024;16.296;2023-06-14T13:47:35;23.80;81.60
4693;DHT22;11710;48.024;16.296;2023-06-14T13:50:02;24.10;81.40
4693;DHT22;11710;48.024;16.296;2023-06-14T13:52:30;24.30;80.80
4693;DHT22;11710;48.024;16.296;2023-06-14T13:54:58;24.30;80.50
4693;DHT22;11710;48.024;16.296;2023-06-14T13:57:26;24.50;81.20
4693;DHT22;11710;48.024;16.296;2023-06-14T13:59:53;24.60;81.30
4693;DHT22;11710;48.024;16.296;2023-06-14T14:02:21;24.00;79.70
4693;DHT22;11710;48.024;16.296;2023-06-14T14:04:48;23.80;80.30
4693;DHT22;11710;48.024;16.296;2023-06-14T14:07:19;23.50;81.80
4693;DHT22;11710;48.024;16.296;2023-06-14T14:09:48;23.30;81.50
4693;DHT22;11710;48.024;16.296;2023-06-14T14:12:16;23.50;83.10
4693;DHT22;11710;48.024;16.296;2023-06-14T14:14:43;23.80;83.00
4693;DHT22;11710;48.024;16.296;2023-06-14T14:17:12;23.60;81.20
4693;DHT22;11710;48.024;16.296;2023-06-14T14:19:39;23.30;81.90
4693;DHT22;11710;48.024;16.296;2023-06-14T14:22:06;23.30;82.70
4693;DHT22;11710;48.024;16.296;2023-06-14T14:24:33;23.20;81.70
4693;DHT22;11710;48.024;16.296;2023-06-14T14:27:00;22.90;82.10
4693;DHT22;11710;48.024;16.296;2023-06-14T14:29:29;22.80;81.70
4693;DHT22;11710;48.024;16.296;2023-06-14T14:31:56;22.90;83.00
4693;DHT22;11710;48.024;16.296;2023-06-14T14:34:25;23.30;82.40
4693;DHT22;11710;48.024;16.296;2023-06-14T14:36:52;23.20;81.10
4693;DHT22;11710;48.024;16.296;2023-06-14T14:39:19;23.00;81.60
4693;DHT22;11710;48.024;16.296;2023-06-14T14:41:46;23.10;81.90
4693;DHT22;11710;48.024;16.296;2023-06-14T14:44:13;23.30;81.50
4693;DHT22;11710;48.024;16.296;2023-06-14T14:46:42;23.30;80.60
4693;DHT22;11710;48.024;16.296;2023-06-14T14:49:10;23.30;81.90
4693;DHT22;11710;48.024;16.296;2023-06-14T14:51:37;23.60;81.00
4693;DHT22;11710;48.024;16.296;2023-06-14T14:54:05;23.70;81.60
4693;DHT22;11710;48.024;16.296;2023-06-14T14:56:33;23.70;80.30
4693;DHT22;11710;48.024;16.296;2023-06-14T14:59:00;23.40;80.10
4693;DHT22;11710;48.024;16.296;2023-06-14T15:01:28;23.20;81.00
4693;DHT22;11710;48.024;16.296;2023-06-14T15:03:57;23.20;81.10
4693;DHT22;11710;48.024;16.296;2023-06-14T15:06:24;23.00;80.80
4693;DHT22;11710;48.024;16.296;2023-06-14T15:08:51;23.00;81.10
4693;DHT22;11710;48.024;16.296;2023-06-14T15:11:19;23.00;81.00
4693;DHT22;11710;48.024;16.296;2023-06-14T15:13:46;23.00;81.40
4693;DHT22;11710;48.024;16.296;2023-06-14T15:16:14;22.90;81.60
4693;DHT22;11710;48.024;16.296;2023-06-14T15:18:41;22.80;81.20
4693;DHT22;11710;48.024;16.296;2023-06-14T15:21:10;22.70;81.00
4693;DHT22;11710;48.024;16.296;2023-06-14T15:23:37;22.80;81.60
4693;DHT22;11710;48.024;16.296;2023-06-14T15:26:04;22.80;82.30
4693;DHT22;11710;48.024;16.296;2023-06-14T15:28:32;22.90;82.30
4693;DHT22;11710;48.024;16.296;2023-06-14T15:30:59;22.90;81.50
4693;DHT22;11710;48.024;16.296;2023-06-14T15:33:26;22.90;81.90
4693;DHT22;11710;48.024;16.296;2023-06-14T15:35:53;22.80;81.80
4693;DHT22;11710;48.024;16.296;2023-06-14T15:38:22;22.90;81.90
4693;DHT22;11710;48.024;16.296;2023-06-14T15:40:50;23.00;81.50
4693;DHT22;11710;48.024;16.296;2023-06-14T15:43:17;23.00;81.20
4693;DHT22;11710;48.024;16.296;2023-06-14T15:45:44;23.20;80.70
4693;DHT22;11710;48.024;16.296;2023-06-14T15:48:11;23.30;80.60
4693;DHT22;11710;48.024;16.296;2023-06-14T15:50:38;23.20;80.50
4693;DHT22;11710;48.024;16.296;2023-06-14T15:53:06;23.30;80.30
4693;DHT22;11710;48.024;16.296;2023-06-14T15:55:34;23.30;80.20
4693;DHT22;11710;48.024;16.296;2023-06-14T15:58:01;23.50;80.20
4693;DHT22;11710;48.024;16.296;2023-06-14T16:00:29;23.70;80.30
4693;DHT22;11710;48.024;16.296;2023-06-14T16:02:56;23.90;79.70
4693;DHT22;11710;48.024;16.296;2023-06-14T16:05:23;24.00;80.10
4693;DHT22;11710;48.024;16.296;2023-06-14T16:07:50;24.10;79.80
4693;DHT22;11710;48.024;16.296;2023-06-14T16:10:18;24.00;79.20
4693;DHT22;11710;48.024;16.296;2023-06-14T16:12:47;23.70;79.20
4693;DHT22;11710;48.024;16.296;2023-06-14T16:15:14;23.60;80.20
4693;DHT22;11710;48.024;16.296;2023-06-14T16:17:42;23.60;80.70
4693;DHT22;11710;48.024;16.296;2023-06-14T16:20:10;23.60;80.20
4693;DHT22;11710;48.024;16.296;2023-06-14T16:22:37;23.40;80.80
4693;DHT22;11710;48.024;16.296;2023-06-14T16:25:05;23.40;80.40
4693;DHT22;11710;48.024;16.296;2023-06-14T16:27:33;23.40;80.80
4693;DHT22;11710;48.024;16.296;2023-06-14T16:30:01;23.40;80.10
4693;DHT22;11710;48.024;16.296;2023-06-14T16:32:29;23.30;80.60
4693;DHT22;11710;48.024;16.296;2023-06-14T16:34:56;23.40;80.70
4693;DHT22;11710;48.024;16.296;2023-06-14T16:37:23;23.30;80.50
4693;DHT22;11710;48.024;16.296;2023-06-14T16:39:50;23.40;80.80
4693;DHT22;11710;48.024;16.296;2023-06-14T16:42:17;23.40;81.10
4693;DHT22;11710;48.024;16.296;2023-06-14T16:44:45;23.40;81.90
4693;DHT22;11710;48.024;16.296;2023-06-14T16:47:13;23.20;82.90
4693;DHT22;11710;48.024;16.296;2023-06-14T16:49:40;23.10;82.70
4693;DHT22;11710;48.024;16.296;2023-06-14T16:52:08;23.10;82.10
4693;DHT22;11710;48.024;16.296;2023-06-14T16:54:35;23.10;83.00
4693;DHT22;11710;48.024;16.296;2023-06-14T16:57:02;23.10;82.20
4693;DHT22;11710;48.024;16.296;2023-06-14T16:59:30;23.10;82.90
4693;DHT22;11710;48.024;16.296;2023-06-14T17:02:03;23.30;83.20
4693;DHT22;11710;48.024;16.296;2023-06-14T17:04:32;23.40;83.60
4693;DHT22;11710;48.024;16.296;2023-06-14T17:06:59;23.50;82.60
4693;DHT22;11710;48.024;16.296;2023-06-14T17:09:29;23.40;83.40
4693;DHT22;11710;48.024;16.296;2023-06-14T17:11:56;23.20;82.90
4693;DHT22;11710;48.024;16.296;2023-06-14T17:14:23;23.00;83.00
4693;DHT22;11710;48.024;16.296;2023-06-14T17:16:50;22.70;85.30
4693;DHT22;11710;48.024;16.296;2023-06-14T17:19:18;22.50;85.30
4693;DHT22;11710;48.024;16.296;2023-06-14T17:21:46;22.40;84.90
4693;DHT22;11710;48.024;16.296;2023-06-14T17:24:18;22.40;85.60
4693;DHT22;11710;48.024;16.296;2023-06-14T17:26:46;22.30;85.40
4693;DHT22;11710;48.024;16.296;2023-06-14T17:29:14;22.10;85.10
4693;DHT22;11710;48.024;16.296;2023-06-14T17:31:42;22.10;85.50
4693;DHT22;11710;48.024;16.296;2023-06-14T17:34:09;22.10;86.50
4693;DHT22;11710;48.024;16.296;2023-06-14T17:36:36;22.10;85.90
4693;DHT22;11710;48.024;16.296;2023-06-14T17:39:05;22.00;85.30
4693;DHT22;11710;48.024;16.296;2023-06-14T17:41:34;22.00;86.20
4693;DHT22;11710;48.024;16.296;2023-06-14T17:44:01;21.90;87.00
4693;DHT22;11710;48.024;16.296;2023-06-14T17:46:28;21.80;87.70
4693;DHT22;11710;48.024;16.296;2023-06-14T17:48:55;21.80;88.60
4693;DHT22;11710;48.024;16.296;2023-06-14T17:51:22;21.70;89.00
4693;DHT22;11710;48.024;16.296;2023-06-14T17:53:50;21.60;89.60
4693;DHT22;11710;48.024;16.296;2023-06-14T17:56:19;21.60;90.00
4693;DHT22;11710;48.024;16.296;2023-06-14T17:58:47;21.50;90.10
4693;DHT22;11710;48.024;16.296;2023-06-14T18:01:14;21.40;90.20
4693;DHT22;11710;48.024;16.296;2023-06-14T18:03:42;21.40;90.20
4693;DHT22;11710;48.024;16.296;2023-06-14T18:06:10;21.40;90.10
4693;DHT22;11710;48.024;16.296;2023-06-14T18:08:37;21.30;90.20
4693;DHT22;11710;48.024;16.296;2023-06-14T18:11:04;21.30;90.30
4693;DHT22;11710;48.024;16.296;2023-06-14T18:13:34;21.20;90.20
4693;DHT22;11710;48.024;16.296;2023-06-14T18:16:01;21.20;90.20
4693;DHT22;11710;48.024;16.296;2023-06-14T18:18:28;21.20;90.20
4693;DHT22;11710;48.024;16.296;2023-06-14T18:20:55;21.10;90.10
4693;DHT22;11710;48.024;16.296;2023-06-14T18:23:23;21.10;89.90
4693;DHT22;11710;48.024;16.296;2023-06-14T18:25:50;21.00;90.00
4693;DHT22;11710;48.024;16.296;2023-06-14T18:28:19;21.00;90.10
4693;DHT22;11710;48.024;16.296;2023-06-14T18:30:48;20.90;90.20
4693;DHT22;11710;48.024;16.296;2023-06-14T18:33:15;20.90;90.30
4693;DHT22;11710;48.024;16.296;2023-06-14T18:35:42;20.80;90.30
4693;DHT22;11710;48.024;16.296;2023-06-14T18:38:10;20.70;90.20
4693;DHT22;11710;48.024;16.296;2023-06-14T18:40:38;20.60;90.30
4693;DHT22;11710;48.024;16.296;2023-06-14T18:43:05;20.50;90.30
4693;DHT22;11710;48.024;16.296;2023-06-14T18:45:32;20.50;90.40
4693;DHT22;11710;48.024;16.296;2023-06-14T18:48:01;20.40;90.50
4693;DHT22;11710;48.024;16.296;2023-06-14T18:50:28;20.30;90.60
4693;DHT22;11710;48.024;16.296;2023-06-14T18:52:55;20.30;90.70
4693;DHT22;11710;48.024;16.296;2023-06-14T18:55:22;20.30;90.80
4693;DHT22;11710;48.024;16.296;2023-06-14T18:57:50;20.20;90.90
4693;DHT22;11710;48.024;16.296;2023-06-14T19:00:17;20.10;91.00